Hikarimaru No.17 — JD2956 — position and weather

sailwx.info

Track history (hours):
 
Tides and Currents Weather Stations Pressure Air Temp Water Temp Dewpoint Dewpoint Depression Visibility Wind Speed Wind Dir Waves Ship Positions

Hikarimaru No.17

Last reported at 2014-Nov-01 03:29 UTC. Time now 2014-Nov-01 04:13 UTC.
Position N 34°18' E 134°59'.

Length 105 m; draft 5.5 m.

Type: Tanker. MMSI: 431000984.

Date/timePositionNaut miles runAvg speedWind from/ knotsBaromVisibWave heightAir tempDewpointWater temp
2014-Nov-01 03:29N 34°18' E 134°59'1212.9
2014-Nov-01 02:33N 34°30' E 135°02'9 9.0
2014-Nov-01 01:31N 34°37' E 134°55'  
2014-Oct-29 19:23N 34°04' E 132°36'11813.2
2014-Oct-29 10:29N 34°35' E 134°53'910.1
2014-Oct-29 09:33N 34°35' E 135°05'1412.1
2014-Oct-29 08:22N 34°21' E 135°01'910.8
2014-Oct-29 07:34N 34°13' E 135°03'8 6.9
2014-Oct-29 06:24N 34°09' E 135°11'0 0.1
2014-Oct-29 03:33N 34°09' E 135°11'2 1.7
2014-Oct-29 02:33N 34°09' E 135°09'0 0.0
2014-Oct-29 01:33N 34°09' E 135°09'0 0.0
2014-Oct-29 00:33N 34°09' E 135°09'0 0.0
2014-Oct-28 23:33N 34°09' E 135°09'0 0.0
2014-Oct-28 22:33N 34°09' E 135°09'0 0.0
2014-Oct-28 21:33N 34°09' E 135°09'0 0.0
2014-Oct-28 20:33N 34°09' E 135°09'0 0.0
2014-Oct-28 19:33N 34°09' E 135°09'0 0.0
2014-Oct-28 18:33N 34°09' E 135°09'0 0.0
2014-Oct-28 17:33N 34°09' E 135°09'0 0.0
2014-Oct-28 16:33N 34°09' E 135°09'0 0.0
2014-Oct-28 15:33N 34°09' E 135°09'0 0.0
2014-Oct-28 14:33N 34°09' E 135°09'0 0.0
2014-Oct-28 13:30N 34°09' E 135°09'0 0.0
2014-Oct-28 12:30N 34°09' E 135°09'0 0.0
2014-Oct-28 11:30N 34°09' E 135°09'0 0.0
2014-Oct-28 10:09N 34°09' E 135°09'0 0.0
2014-Oct-28 09:33N 34°09' E 135°09'0 0.0
2014-Oct-28 08:33N 34°09' E 135°09'0 0.0
2014-Oct-28 07:33N 34°09' E 135°09'2 2.3
2014-Oct-28 06:34N 34°07' E 135°07'1 0.1
2014-Oct-28 00:34N 34°08' E 135°07'2 1.6
2014-Oct-27 23:33N 34°09' E 135°08'0 0.0
2014-Oct-27 22:33N 34°09' E 135°08'0 0.0
2014-Oct-27 21:33N 34°09' E 135°08'0 0.0
2014-Oct-27 20:33N 34°09' E 135°08'0 0.0
2014-Oct-27 19:33N 34°09' E 135°08'0 0.0
2014-Oct-27 18:33N 34°09' E 135°08'0 0.0
2014-Oct-27 17:24N 34°09' E 135°08'0 0.0
2014-Oct-27 16:30N 34°09' E 135°08'0 0.0
2014-Oct-27 15:30N 34°09' E 135°08'0 0.0
2014-Oct-27 14:33N 34°09' E 135°08'0 0.0
2014-Oct-27 12:30N 34°09' E 135°08'0 0.0
2014-Oct-27 11:30N 34°09' E 135°08'0 0.0
2014-Oct-27 10:33N 34°09' E 135°08'0 0.0
2014-Oct-27 09:33N 34°09' E 135°08'0 0.1
2014-Oct-27 08:33N 34°09' E 135°08'0 0.0
2014-Oct-27 07:33N 34°09' E 135°08'0 0.0
2014-Oct-27 06:30N 34°09' E 135°08'0 0.1
2014-Oct-27 05:30N 34°09' E 135°08'4 4.0
2014-Oct-27 04:34N 34°13' E 135°07'2 1.5
2014-Oct-27 03:33N 34°12' E 135°09'0 0.0
2014-Oct-27 02:33N 34°12' E 135°09'0 0.0
2014-Oct-27 01:33N 34°12' E 135°09'0 0.0
2014-Oct-27 00:33N 34°12' E 135°09'0 0.0
2014-Oct-26 23:30N 34°12' E 135°09'0 0.1
2014-Oct-26 22:33N 34°12' E 135°09'0 0.0
2014-Oct-26 21:33N 34°12' E 135°09'0 0.0
2014-Oct-26 20:33N 34°12' E 135°09'0 0.0
2014-Oct-26 19:33N 34°12' E 135°09'0 0.0
2014-Oct-26 18:33N 34°12' E 135°09'0 0.0
2014-Oct-26 17:33N 34°12' E 135°09'0 0.0
2014-Oct-26 16:33N 34°12' E 135°09'0 0.0
2014-Oct-26 15:33N 34°12' E 135°09'0 0.0
2014-Oct-26 14:33N 34°12' E 135°09'0 0.0
2014-Oct-26 13:33N 34°12' E 135°09'0 0.0
2014-Oct-26 12:33N 34°12' E 135°09'0 0.0
2014-Oct-26 11:33N 34°12' E 135°09'0 0.0
2014-Oct-26 10:21N 34°12' E 135°09'0 0.1
2014-Oct-26 09:33N 34°12' E 135°09'0 0.0
2014-Oct-26 08:33N 34°12' E 135°09'0 0.0
2014-Oct-26 07:33N 34°12' E 135°09'0 0.0
2014-Oct-26 06:33N 34°12' E 135°09'0 0.0
2014-Oct-26 05:33N 34°12' E 135°09'0 0.0
2014-Oct-26 04:33N 34°12' E 135°09'0 0.0
2014-Oct-26 03:33N 34°12' E 135°09'0 0.0
2014-Oct-26 02:33N 34°12' E 135°09'0 0.0
2014-Oct-26 01:33N 34°12' E 135°09'0 0.0
2014-Oct-26 00:33N 34°12' E 135°09'0 0.0
2014-Oct-25 23:33N 34°12' E 135°09'0 0.0
2014-Oct-25 22:33N 34°12' E 135°09'0 0.0
2014-Oct-25 21:33N 34°12' E 135°09'0 0.0
2014-Oct-25 20:33N 34°12' E 135°09'0 0.0
2014-Oct-25 19:33N 34°12' E 135°09'0 0.0
2014-Oct-25 18:33N 34°12' E 135°09'0 0.0
2014-Oct-25 17:33N 34°12' E 135°09'0 0.0
2014-Oct-25 16:33N 34°12' E 135°09'0 0.0
2014-Oct-25 15:33N 34°12' E 135°09'0 0.0
2014-Oct-25 14:33N 34°12' E 135°09'0 0.0
2014-Oct-25 13:33N 34°12' E 135°09'0 0.0
2014-Oct-25 12:33N 34°12' E 135°09'0 0.0
2014-Oct-25 11:33N 34°12' E 135°09'0 0.0
2014-Oct-25 10:33N 34°12' E 135°09'0 0.0
2014-Oct-25 09:33N 34°12' E 135°09'0 0.0
2014-Oct-25 08:33N 34°12' E 135°09'0 0.0
2014-Oct-25 07:33N 34°12' E 135°09'0 0.1
2014-Oct-25 06:33N 34°12' E 135°09'0 0.1
2014-Oct-25 05:33N 34°12' E 135°09'0 0.0
2014-Oct-25 04:24N 34°12' E 135°09'7 8.0
2014-Oct-25 03:33N 34°15' E 135°01'1312.4
2014-Oct-25 02:32N 34°27' E 135°01'1010.2
2014-Oct-25 01:33N 34°37' E 134°59'127 3.1
2014-Oct-23 08:24N 34°02' E 132°32'10 1.3
2014-Oct-23 00:33N 34°09' E 132°23'  
Track history (hours):
 
Tides and Currents Weather Stations Pressure Air Temp Water Temp Dewpoint Dewpoint Depression Visibility Wind Speed Wind Dir Waves Ship Positions

Hikarimaru No.17

Last reported at 2014-Nov-01 03:29 UTC. Time now 2014-Nov-01 04:13 UTC.
Position N 34°18' E 134°59'.

Length 105 m; draft 5.5 m.

Type: Tanker. MMSI: 431000984.

Date/timePositionNaut miles runAvg speedWind from/ knotsBaromVisibWave heightAir tempDewpointWater temp
2014-Nov-01 03:29N 34°18' E 134°59'1212.9
2014-Nov-01 02:33N 34°30' E 135°02'9 9.0
2014-Nov-01 01:31N 34°37' E 134°55'  
2014-Oct-29 19:23N 34°04' E 132°36'11813.2
2014-Oct-29 10:29N 34°35' E 134°53'910.1
2014-Oct-29 09:33N 34°35' E 135°05'1412.1
2014-Oct-29 08:22N 34°21' E 135°01'910.8
2014-Oct-29 07:34N 34°13' E 135°03'8 6.9
2014-Oct-29 06:24N 34°09' E 135°11'0 0.1
2014-Oct-29 03:33N 34°09' E 135°11'2 1.7
2014-Oct-29 02:33N 34°09' E 135°09'0 0.0
2014-Oct-29 01:33N 34°09' E 135°09'0 0.0
2014-Oct-29 00:33N 34°09' E 135°09'0 0.0
2014-Oct-28 23:33N 34°09' E 135°09'0 0.0
2014-Oct-28 22:33N 34°09' E 135°09'0 0.0
2014-Oct-28 21:33N 34°09' E 135°09'0 0.0
2014-Oct-28 20:33N 34°09' E 135°09'0 0.0
2014-Oct-28 19:33N 34°09' E 135°09'0 0.0
2014-Oct-28 18:33N 34°09' E 135°09'0 0.0
2014-Oct-28 17:33N 34°09' E 135°09'0 0.0
2014-Oct-28 16:33N 34°09' E 135°09'0 0.0
2014-Oct-28 15:33N 34°09' E 135°09'0 0.0
2014-Oct-28 14:33N 34°09' E 135°09'0 0.0
2014-Oct-28 13:30N 34°09' E 135°09'0 0.0
2014-Oct-28 12:30N 34°09' E 135°09'0 0.0
2014-Oct-28 11:30N 34°09' E 135°09'0 0.0
2014-Oct-28 10:09N 34°09' E 135°09'0 0.0
2014-Oct-28 09:33N 34°09' E 135°09'0 0.0
2014-Oct-28 08:33N 34°09' E 135°09'0 0.0
2014-Oct-28 07:33N 34°09' E 135°09'2 2.3
2014-Oct-28 06:34N 34°07' E 135°07'1 0.1
2014-Oct-28 00:34N 34°08' E 135°07'2 1.6
2014-Oct-27 23:33N 34°09' E 135°08'0 0.0
2014-Oct-27 22:33N 34°09' E 135°08'0 0.0
2014-Oct-27 21:33N 34°09' E 135°08'0 0.0
2014-Oct-27 20:33N 34°09' E 135°08'0 0.0
2014-Oct-27 19:33N 34°09' E 135°08'0 0.0
2014-Oct-27 18:33N 34°09' E 135°08'0 0.0
2014-Oct-27 17:24N 34°09' E 135°08'0 0.0
2014-Oct-27 16:30N 34°09' E 135°08'0 0.0
2014-Oct-27 15:30N 34°09' E 135°08'0 0.0
2014-Oct-27 14:33N 34°09' E 135°08'0 0.0
2014-Oct-27 12:30N 34°09' E 135°08'0 0.0
2014-Oct-27 11:30N 34°09' E 135°08'0 0.0
2014-Oct-27 10:33N 34°09' E 135°08'0 0.0
2014-Oct-27 09:33N 34°09' E 135°08'0 0.1
2014-Oct-27 08:33N 34°09' E 135°08'0 0.0
2014-Oct-27 07:33N 34°09' E 135°08'0 0.0
2014-Oct-27 06:30N 34°09' E 135°08'0 0.1
2014-Oct-27 05:30N 34°09' E 135°08'4 4.0
2014-Oct-27 04:34N 34°13' E 135°07'2 1.5
2014-Oct-27 03:33N 34°12' E 135°09'0 0.0
2014-Oct-27 02:33N 34°12' E 135°09'0 0.0
2014-Oct-27 01:33N 34°12' E 135°09'0 0.0
2014-Oct-27 00:33N 34°12' E 135°09'0 0.0
2014-Oct-26 23:30N 34°12' E 135°09'0 0.1
2014-Oct-26 22:33N 34°12' E 135°09'0 0.0
2014-Oct-26 21:33N 34°12' E 135°09'0 0.0
2014-Oct-26 20:33N 34°12' E 135°09'0 0.0
2014-Oct-26 19:33N 34°12' E 135°09'0 0.0
2014-Oct-26 18:33N 34°12' E 135°09'0 0.0
2014-Oct-26 17:33N 34°12' E 135°09'0 0.0
2014-Oct-26 16:33N 34°12' E 135°09'0 0.0
2014-Oct-26 15:33N 34°12' E 135°09'0 0.0
2014-Oct-26 14:33N 34°12' E 135°09'0 0.0
2014-Oct-26 13:33N 34°12' E 135°09'0 0.0
2014-Oct-26 12:33N 34°12' E 135°09'0 0.0
2014-Oct-26 11:33N 34°12' E 135°09'0 0.0
2014-Oct-26 10:21N 34°12' E 135°09'0 0.1
2014-Oct-26 09:33N 34°12' E 135°09'0 0.0
2014-Oct-26 08:33N 34°12' E 135°09'0 0.0
2014-Oct-26 07:33N 34°12' E 135°09'0 0.0
2014-Oct-26 06:33N 34°12' E 135°09'0 0.0
2014-Oct-26 05:33N 34°12' E 135°09'0 0.0
2014-Oct-26 04:33N 34°12' E 135°09'0 0.0
2014-Oct-26 03:33N 34°12' E 135°09'0 0.0
2014-Oct-26 02:33N 34°12' E 135°09'0 0.0
2014-Oct-26 01:33N 34°12' E 135°09'0 0.0
2014-Oct-26 00:33N 34°12' E 135°09'0 0.0
2014-Oct-25 23:33N 34°12' E 135°09'0 0.0
2014-Oct-25 22:33N 34°12' E 135°09'0 0.0
2014-Oct-25 21:33N 34°12' E 135°09'0 0.0
2014-Oct-25 20:33N 34°12' E 135°09'0 0.0
2014-Oct-25 19:33N 34°12' E 135°09'0 0.0
2014-Oct-25 18:33N 34°12' E 135°09'0 0.0
2014-Oct-25 17:33N 34°12' E 135°09'0 0.0
2014-Oct-25 16:33N 34°12' E 135°09'0 0.0
2014-Oct-25 15:33N 34°12' E 135°09'0 0.0
2014-Oct-25 14:33N 34°12' E 135°09'0 0.0
2014-Oct-25 13:33N 34°12' E 135°09'0 0.0
2014-Oct-25 12:33N 34°12' E 135°09'0 0.0
2014-Oct-25 11:33N 34°12' E 135°09'0 0.0
2014-Oct-25 10:33N 34°12' E 135°09'0 0.0
2014-Oct-25 09:33N 34°12' E 135°09'0 0.0
2014-Oct-25 08:33N 34°12' E 135°09'0 0.0
2014-Oct-25 07:33N 34°12' E 135°09'0 0.1
2014-Oct-25 06:33N 34°12' E 135°09'0 0.1
2014-Oct-25 05:33N 34°12' E 135°09'0 0.0
2014-Oct-25 04:24N 34°12' E 135°09'7 8.0
2014-Oct-25 03:33N 34°15' E 135°01'1312.4
2014-Oct-25 02:32N 34°27' E 135°01'1010.2
2014-Oct-25 01:33N 34°37' E 134°59'127 3.1
2014-Oct-23 08:24N 34°02' E 132°32'10 1.3
2014-Oct-23 00:33N 34°09' E 132°23'  

Dump ship's entire track history